Terminal Aerodrome Forecast
Issued by NWS

Home | Current Version | Previous Version | Text Only | Print | Product List | Glossary On
Versions: 1 2 3 4 5 6 7 8 9 10 11 12 13 14 15 16 17 18
000
FTUS46 KSEW 202336
TAFHQM
TAF
KHQM 202336Z 2100/2124 27007KT P6SM BKN200
     FM211300 07013KT P6SM OVC019
     FM211500 07013KT 4SM -RA BR OVC007
     FM211800 07017KT 2SM -RA BR OVC015
     FM212200 13021G30KT P6SM -SHRA OVC015=

USA.gov is the U.S. government's official web portal to all federal, state and local government web resources and services.